KHXD

Hilton Head Airport

Hilton Head Island, South Carolina, USA
METAR KHXD 181906Z 21006KT 10SM OVC010 20/18 A3015
Observed Flight Rules
Dec-18 @ 19:06 UTC (an hour ago) Marginal Visual Flight Rules
Wind Visibility Clouds
210° at 6 knots 10 miles
  • Overcast at 1,000' AGL
Temperatures Readings
Current 20°C / 68°F
Dewpoint 18°C / 64°F
Humidity 88%
Altimeter 30.15" Hg
Pressure 1021 hPa
Elevation 6
METAR KHXD 181906Z 21006KT 10SM OVC010 20/18 A3015
Observed Flight Rules
Dec-18 @ 19:06 UTC
(an hour ago)
MVFR
Wind Visibility
210° at 6 knots 10 miles
Clouds
  • Overcast at 1,000' AGL
Temperature Dewpoint
20°C / 68°F 18°C / 64°F
Humidity Altimeter Pressure
88% 30.15" Hg 1021 hPa